sensor_id;sensor_type;location;lat;lon;timestamp;pressure;altitude;pressure_sealevel;temperature;humidity
13690;BME280;6917;52.194;9.894;2023-05-21T00:00:11;100747.28;;;12.41;100.00
13690;BME280;6917;52.194;9.894;2023-05-21T00:02:38;100746.56;;;12.27;100.00
13690;BME280;6917;52.194;9.894;2023-05-21T00:05:04;100750.97;;;12.37;100.00
13690;BME280;6917;52.194;9.894;2023-05-21T00:07:29;100744.22;;;12.34;100.00
13690;BME280;6917;52.194;9.894;2023-05-21T00:09:57;100755.00;;;12.31;100.00
13690;BME280;6917;52.194;9.894;2023-05-21T00:12:22;100747.53;;;12.23;100.00
13690;BME280;6917;52.194;9.894;2023-05-21T00:14:47;100737.38;;;12.23;100.00
13690;BME280;6917;52.194;9.894;2023-05-21T00:17:13;100736.03;;;12.12;100.00
13690;BME280;6917;52.194;9.894;2023-05-21T00:19:38;100730.69;;;12.07;100.00
13690;BME280;6917;52.194;9.894;2023-05-21T00:22:04;100727.97;;;12.07;100.00
13690;BME280;6917;52.194;9.894;2023-05-21T00:24:30;100733.59;;;12.10;100.00
13690;BME280;6917;52.194;9.894;2023-05-21T00:26:55;100726.19;;;12.11;100.00
13690;BME280;6917;52.194;9.894;2023-05-21T00:29:21;100736.09;;;12.20;100.00
13690;BME280;6917;52.194;9.894;2023-05-21T00:31:47;100727.38;;;12.18;100.00
13690;BME280;6917;52.194;9.894;2023-05-21T00:34:14;100719.59;;;12.12;100.00
13690;BME280;6917;52.194;9.894;2023-05-21T00:36:39;100720.72;;;12.11;100.00
13690;BME280;6917;52.194;9.894;2023-05-21T00:39:05;100722.78;;;12.05;100.00
13690;BME280;6917;52.194;9.894;2023-05-21T00:41:30;100715.00;;;11.99;100.00
13690;BME280;6917;52.194;9.894;2023-05-21T00:43:56;100709.31;;;12.17;100.00
13690;BME280;6917;52.194;9.894;2023-05-21T00:46:25;100711.25;;;12.17;100.00
13690;BME280;6917;52.194;9.894;2023-05-21T00:48:53;100708.72;;;11.98;100.00
13690;BME280;6917;52.194;9.894;2023-05-21T00:51:18;100708.88;;;11.93;100.00
13690;BME280;6917;52.194;9.894;2023-05-21T00:53:48;100713.06;;;11.90;100.00
13690;BME280;6917;52.194;9.894;2023-05-21T00:56:14;100708.22;;;11.87;100.00
13690;BME280;6917;52.194;9.894;2023-05-21T00:58:39;100709.50;;;11.90;100.00
13690;BME280;6917;52.194;9.894;2023-05-21T01:01:05;100701.13;;;11.86;100.00
13690;BME280;6917;52.194;9.894;2023-05-21T01:03:34;100701.78;;;11.92;100.00
13690;BME280;6917;52.194;9.894;2023-05-21T01:06:06;100700.75;;;11.79;100.00
13690;BME280;6917;52.194;9.894;2023-05-21T01:08:33;100698.28;;;11.78;100.00
13690;BME280;6917;52.194;9.894;2023-05-21T01:11:00;100689.53;;;11.67;100.00
13690;BME280;6917;52.194;9.894;2023-05-21T01:13:26;100698.38;;;11.64;100.00
13690;BME280;6917;52.194;9.894;2023-05-21T01:15:52;100699.31;;;11.59;100.00
13690;BME280;6917;52.194;9.894;2023-05-21T01:18:19;100698.28;;;11.55;100.00
13690;BME280;6917;52.194;9.894;2023-05-21T01:20:45;100691.84;;;11.51;100.00
13690;BME280;6917;52.194;9.894;2023-05-21T01:23:21;100693.63;;;11.56;100.00
13690;BME280;6917;52.194;9.894;2023-05-21T01:25:46;100694.16;;;11.58;100.00
13690;BME280;6917;52.194;9.894;2023-05-21T01:28:12;100701.09;;;11.64;100.00
13690;BME280;6917;52.194;9.894;2023-05-21T01:30:39;100694.53;;;11.87;100.00
13690;BME280;6917;52.194;9.894;2023-05-21T01:35:52;100692.28;;;11.89;100.00
13690;BME280;6917;52.194;9.894;2023-05-21T01:38:24;100685.88;;;11.72;100.00
13690;BME280;6917;52.194;9.894;2023-05-21T01:40:53;100685.66;;;11.68;100.00
13690;BME280;6917;52.194;9.894;2023-05-21T01:43:21;100683.06;;;11.41;100.00
13690;BME280;6917;52.194;9.894;2023-05-21T01:45:48;100679.34;;;11.37;100.00
13690;BME280;6917;52.194;9.894;2023-05-21T01:48:18;100680.72;;;11.48;100.00
13690;BME280;6917;52.194;9.894;2023-05-21T01:50:44;100686.59;;;11.63;100.00
13690;BME280;6917;52.194;9.894;2023-05-21T01:53:10;100682.38;;;11.80;100.00
13690;BME280;6917;52.194;9.894;2023-05-21T01:55:35;100692.50;;;11.57;100.00
13690;BME280;6917;52.194;9.894;2023-05-21T01:58:06;100683.69;;;11.38;100.00
13690;BME280;6917;52.194;9.894;2023-05-21T02:00:32;100682.31;;;11.26;100.00
13690;BME280;6917;52.194;9.894;2023-05-21T02:02:59;100681.31;;;11.22;100.00
13690;BME280;6917;52.194;9.894;2023-05-21T02:05:24;100685.06;;;11.49;100.00
13690;BME280;6917;52.194;9.894;2023-05-21T02:07:50;100689.66;;;11.62;100.00
13690;BME280;6917;52.194;9.894;2023-05-21T02:10:17;100695.38;;;11.74;100.00
13690;BME280;6917;52.194;9.894;2023-05-21T02:12:42;100693.63;;;11.78;100.00
13690;BME280;6917;52.194;9.894;2023-05-21T02:15:09;100688.34;;;11.59;100.00
13690;BME280;6917;52.194;9.894;2023-05-21T02:17:34;100687.84;;;11.35;100.00
13690;BME280;6917;52.194;9.894;2023-05-21T02:20:02;100684.50;;;11.38;100.00
13690;BME280;6917;52.194;9.894;2023-05-21T02:22:42;100679.25;;;11.28;100.00
13690;BME280;6917;52.194;9.894;2023-05-21T02:25:08;100682.06;;;11.14;100.00
13690;BME280;6917;52.194;9.894;2023-05-21T02:27:35;100677.16;;;11.02;100.00
13690;BME280;6917;52.194;9.894;2023-05-21T02:30:03;100671.78;;;10.97;100.00
13690;BME280;6917;52.194;9.894;2023-05-21T02:32:28;100679.00;;;10.80;100.00
13690;BME280;6917;52.194;9.894;2023-05-21T02:34:56;100672.88;;;10.74;100.00
13690;BME280;6917;52.194;9.894;2023-05-21T02:37:23;100669.94;;;10.70;100.00
13690;BME280;6917;52.194;9.894;2023-05-21T02:39:49;100674.44;;;10.89;100.00
13690;BME280;6917;52.194;9.894;2023-05-21T02:42:15;100676.25;;;10.93;100.00
13690;BME280;6917;52.194;9.894;2023-05-21T02:44:40;100672.94;;;10.83;100.00
13690;BME280;6917;52.194;9.894;2023-05-21T02:47:06;100663.84;;;10.73;100.00
13690;BME280;6917;52.194;9.894;2023-05-21T02:49:34;100667.78;;;10.67;100.00
13690;BME280;6917;52.194;9.894;2023-05-21T02:51:59;100671.75;;;10.75;100.00
13690;BME280;6917;52.194;9.894;2023-05-21T02:54:25;100666.31;;;10.61;100.00
13690;BME280;6917;52.194;9.894;2023-05-21T02:56:50;100669.34;;;10.60;100.00
13690;BME280;6917;52.194;9.894;2023-05-21T02:59:15;100668.84;;;10.58;100.00
13690;BME280;6917;52.194;9.894;2023-05-21T03:01:40;100671.56;;;10.71;100.00
13690;BME280;6917;52.194;9.894;2023-05-21T03:04:06;100668.59;;;10.68;100.00
13690;BME280;6917;52.194;9.894;2023-05-21T03:06:31;100663.81;;;10.87;100.00
13690;BME280;6917;52.194;9.894;2023-05-21T03:08:58;100671.69;;;11.02;100.00
13690;BME280;6917;52.194;9.894;2023-05-21T03:11:24;100663.25;;;10.77;100.00
13690;BME280;6917;52.194;9.894;2023-05-21T03:13:50;100663.44;;;10.66;100.00
13690;BME280;6917;52.194;9.894;2023-05-21T03:16:15;100655.13;;;10.85;100.00
13690;BME280;6917;52.194;9.894;2023-05-21T03:18:42;100661.75;;;10.70;100.00
13690;BME280;6917;52.194;9.894;2023-05-21T03:21:08;100655.81;;;10.91;100.00
13690;BME280;6917;52.194;9.894;2023-05-21T03:23:33;100657.78;;;10.99;100.00
13690;BME280;6917;52.194;9.894;2023-05-21T03:25:59;100657.34;;;10.83;100.00
13690;BME280;6917;52.194;9.894;2023-05-21T03:28:26;100649.28;;;10.64;100.00
13690;BME280;6917;52.194;9.894;2023-05-21T03:30:51;100646.88;;;10.49;100.00
13690;BME280;6917;52.194;9.894;2023-05-21T03:33:17;100645.06;;;10.58;100.00
13690;BME280;6917;52.194;9.894;2023-05-21T03:35:42;100642.34;;;10.58;100.00
13690;BME280;6917;52.194;9.894;2023-05-21T03:38:08;100645.41;;;10.79;100.00
13690;BME280;6917;52.194;9.894;2023-05-21T03:40:33;100646.94;;;10.85;100.00
13690;BME280;6917;52.194;9.894;2023-05-21T03:42:58;100641.19;;;10.73;100.00
13690;BME280;6917;52.194;9.894;2023-05-21T03:45:23;100645.06;;;10.58;100.00
13690;BME280;6917;52.194;9.894;2023-05-21T03:47:49;100638.56;;;10.54;100.00
13690;BME280;6917;52.194;9.894;2023-05-21T03:50:14;100640.25;;;10.41;100.00
13690;BME280;6917;52.194;9.894;2023-05-21T03:52:40;100647.53;;;10.32;100.00
13690;BME280;6917;52.194;9.894;2023-05-21T03:55:06;100637.78;;;10.26;100.00
13690;BME280;6917;52.194;9.894;2023-05-21T03:57:32;100636.97;;;10.26;100.00
13690;BME280;6917;52.194;9.894;2023-05-21T03:59:58;100645.59;;;10.33;100.00
13690;BME280;6917;52.194;9.894;2023-05-21T04:02:26;100646.78;;;10.27;100.00
13690;BME280;6917;52.194;9.894;2023-05-21T04:04:52;100646.38;;;10.20;100.00
13690;BME280;6917;52.194;9.894;2023-05-21T04:07:18;100646.09;;;10.21;100.00
13690;BME280;6917;52.194;9.894;2023-05-21T04:09:43;100647.91;;;10.26;100.00
13690;BME280;6917;52.194;9.894;2023-05-21T04:12:09;100655.59;;;10.24;100.00
13690;BME280;6917;52.194;9.894;2023-05-21T04:14:35;100650.38;;;10.27;100.00
13690;BME280;6917;52.194;9.894;2023-05-21T04:17:01;100650.88;;;10.29;100.00
13690;BME280;6917;52.194;9.894;2023-05-21T04:19:28;100651.66;;;10.30;100.00
13690;BME280;6917;52.194;9.894;2023-05-21T04:21:54;100645.09;;;10.31;100.00
13690;BME280;6917;52.194;9.894;2023-05-21T04:24:20;100643.56;;;10.38;100.00
13690;BME280;6917;52.194;9.894;2023-05-21T04:26:46;100641.53;;;10.44;100.00
13690;BME280;6917;52.194;9.894;2023-05-21T04:29:12;100644.66;;;10.51;100.00
13690;BME280;6917;52.194;9.894;2023-05-21T04:31:37;100650.03;;;10.56;100.00
13690;BME280;6917;52.194;9.894;2023-05-21T04:34:03;100647.28;;;10.56;100.00
13690;BME280;6917;52.194;9.894;2023-05-21T04:36:29;100653.53;;;10.70;100.00
13690;BME280;6917;52.194;9.894;2023-05-21T04:38:54;100655.63;;;10.87;100.00
13690;BME280;6917;52.194;9.894;2023-05-21T04:41:20;100660.28;;;10.87;100.00
13690;BME280;6917;52.194;9.894;2023-05-21T04:43:45;100651.28;;;10.86;100.00
13690;BME280;6917;52.194;9.894;2023-05-21T04:46:11;100645.59;;;10.83;100.00
13690;BME280;6917;52.194;9.894;2023-05-21T04:48:36;100656.75;;;10.86;100.00
13690;BME280;6917;52.194;9.894;2023-05-21T04:51:01;100656.50;;;10.96;100.00
13690;BME280;6917;52.194;9.894;2023-05-21T04:53:30;100654.25;;;10.98;100.00
13690;BME280;6917;52.194;9.894;2023-05-21T04:55:55;100647.38;;;11.01;100.00
13690;BME280;6917;52.194;9.894;2023-05-21T04:58:23;100646.13;;;11.07;100.00
13690;BME280;6917;52.194;9.894;2023-05-21T05:00:48;100651.28;;;11.09;100.00
13690;BME280;6917;52.194;9.894;2023-05-21T05:03:15;100653.03;;;11.05;100.00
13690;BME280;6917;52.194;9.894;2023-05-21T05:05:41;100655.63;;;11.10;100.00
13690;BME280;6917;52.194;9.894;2023-05-21T05:08:06;100652.00;;;11.14;100.00
13690;BME280;6917;52.194;9.894;2023-05-21T05:10:32;100655.31;;;11.11;100.00
13690;BME280;6917;52.194;9.894;2023-05-21T05:12:58;100650.25;;;11.18;100.00
13690;BME280;6917;52.194;9.894;2023-05-21T05:15:23;100646.88;;;11.21;100.00
13690;BME280;6917;52.194;9.894;2023-05-21T05:17:49;100643.69;;;11.28;100.00
13690;BME280;6917;52.194;9.894;2023-05-21T05:20:14;100642.03;;;11.41;100.00
13690;BME280;6917;52.194;9.894;2023-05-21T05:22:40;100643.84;;;11.45;100.00
13690;BME280;6917;52.194;9.894;2023-05-21T05:25:05;100649.50;;;11.49;100.00
13690;BME280;6917;52.194;9.894;2023-05-21T05:27:31;100645.97;;;11.57;100.00
13690;BME280;6917;52.194;9.894;2023-05-21T05:29:57;100645.06;;;11.61;100.00
13690;BME280;6917;52.194;9.894;2023-05-21T05:32:22;100642.50;;;11.65;100.00
13690;BME280;6917;52.194;9.894;2023-05-21T05:34:48;100641.38;;;11.66;100.00
13690;BME280;6917;52.194;9.894;2023-05-21T05:37:13;100648.97;;;11.69;100.00
13690;BME280;6917;52.194;9.894;2023-05-21T05:39:38;100639.94;;;11.69;100.00
13690;BME280;6917;52.194;9.894;2023-05-21T05:42:04;100637.91;;;11.74;100.00
13690;BME280;6917;52.194;9.894;2023-05-21T05:44:29;100636.34;;;11.82;100.00
13690;BME280;6917;52.194;9.894;2023-05-21T05:46:55;100632.84;;;11.90;100.00
13690;BME280;6917;52.194;9.894;2023-05-21T05:49:21;100635.41;;;11.86;100.00
13690;BME280;6917;52.194;9.894;2023-05-21T05:51:46;100633.16;;;11.88;100.00
13690;BME280;6917;52.194;9.894;2023-05-21T05:54:12;100634.47;;;11.91;100.00
13690;BME280;6917;52.194;9.894;2023-05-21T05:56:38;100639.78;;;11.96;100.00
13690;BME280;6917;52.194;9.894;2023-05-21T05:59:03;100645.63;;;12.03;100.00
13690;BME280;6917;52.194;9.894;2023-05-21T06:01:29;100644.34;;;12.01;100.00
13690;BME280;6917;52.194;9.894;2023-05-21T06:03:56;100649.84;;;12.09;100.00
13690;BME280;6917;52.194;9.894;2023-05-21T06:06:21;100654.88;;;12.16;100.00
13690;BME280;6917;52.194;9.894;2023-05-21T06:08:47;100648.75;;;12.28;100.00
13690;BME280;6917;52.194;9.894;2023-05-21T06:11:12;100649.41;;;12.25;100.00
13690;BME280;6917;52.194;9.894;2023-05-21T06:13:41;100642.47;;;12.27;100.00
13690;BME280;6917;52.194;9.894;2023-05-21T06:16:07;100648.78;;;12.36;100.00
13690;BME280;6917;52.194;9.894;2023-05-21T06:18:34;100653.03;;;12.51;100.00
13690;BME280;6917;52.194;9.894;2023-05-21T06:20:59;100651.94;;;12.61;100.00
13690;BME280;6917;52.194;9.894;2023-05-21T06:23:25;100650.16;;;12.65;100.00
13690;BME280;6917;52.194;9.894;2023-05-21T06:25:51;100658.06;;;12.66;100.00
13690;BME280;6917;52.194;9.894;2023-05-21T06:28:16;100656.78;;;12.81;100.00
13690;BME280;6917;52.194;9.894;2023-05-21T06:30:42;100650.81;;;12.96;100.00
13690;BME280;6917;52.194;9.894;2023-05-21T06:33:08;100659.22;;;13.08;100.00
13690;BME280;6917;52.194;9.894;2023-05-21T06:35:33;100644.69;;;13.08;100.00
13690;BME280;6917;52.194;9.894;2023-05-21T06:38:01;100649.25;;;13.21;100.00
13690;BME280;6917;52.194;9.894;2023-05-21T06:40:27;100646.13;;;13.14;100.00
13690;BME280;6917;52.194;9.894;2023-05-21T06:42:52;100650.66;;;13.01;100.00
13690;BME280;6917;52.194;9.894;2023-05-21T06:45:20;100658.09;;;13.09;100.00
13690;BME280;6917;52.194;9.894;2023-05-21T06:47:45;100652.44;;;13.15;100.00
13690;BME280;6917;52.194;9.894;2023-05-21T06:50:11;100651.63;;;13.14;100.00
13690;BME280;6917;52.194;9.894;2023-05-21T06:52:36;100654.69;;;13.13;100.00
13690;BME280;6917;52.194;9.894;2023-05-21T06:55:02;100652.31;;;13.20;100.00
13690;BME280;6917;52.194;9.894;2023-05-21T06:57:27;100653.59;;;13.31;100.00
13690;BME280;6917;52.194;9.894;2023-05-21T06:59:52;100648.75;;;13.28;100.00
13690;BME280;6917;52.194;9.894;2023-05-21T07:02:18;100648.13;;;13.31;100.00
13690;BME280;6917;52.194;9.894;2023-05-21T07:04:43;100649.56;;;13.37;100.00
13690;BME280;6917;52.194;9.894;2023-05-21T07:07:08;100646.63;;;13.42;100.00
13690;BME280;6917;52.194;9.894;2023-05-21T07:09:34;100650.50;;;13.50;100.00
13690;BME280;6917;52.194;9.894;2023-05-21T07:11:59;100641.09;;;13.59;100.00
13690;BME280;6917;52.194;9.894;2023-05-21T07:14:26;100656.09;;;13.70;100.00
13690;BME280;6917;52.194;9.894;2023-05-21T07:16:51;100650.72;;;13.83;100.00
13690;BME280;6917;52.194;9.894;2023-05-21T07:19:16;100650.06;;;13.86;100.00
13690;BME280;6917;52.194;9.894;2023-05-21T07:21:42;100645.56;;;13.90;100.00
13690;BME280;6917;52.194;9.894;2023-05-21T07:24:07;100644.75;;;13.89;100.00
13690;BME280;6917;52.194;9.894;2023-05-21T07:26:32;100638.13;;;13.90;100.00
13690;BME280;6917;52.194;9.894;2023-05-21T07:28:58;100630.03;;;13.94;100.00
13690;BME280;6917;52.194;9.894;2023-05-21T07:31:23;100628.69;;;14.00;100.00
13690;BME280;6917;52.194;9.894;2023-05-21T07:33:49;100629.25;;;14.23;100.00
13690;BME280;6917;52.194;9.894;2023-05-21T07:36:14;100627.72;;;14.34;100.00
13690;BME280;6917;52.194;9.894;2023-05-21T07:38:40;100638.34;;;14.44;100.00
13690;BME280;6917;52.194;9.894;2023-05-21T07:41:05;100641.03;;;14.62;100.00
13690;BME280;6917;52.194;9.894;2023-05-21T07:43:30;100637.66;;;14.56;100.00
13690;BME280;6917;52.194;9.894;2023-05-21T07:45:56;100635.84;;;14.60;100.00
13690;BME280;6917;52.194;9.894;2023-05-21T07:48:21;100638.66;;;14.72;100.00
13690;BME280;6917;52.194;9.894;2023-05-21T07:50:47;100635.56;;;14.74;100.00
13690;BME280;6917;52.194;9.894;2023-05-21T07:53:14;100627.06;;;14.87;100.00
13690;BME280;6917;52.194;9.894;2023-05-21T07:55:39;100635.47;;;14.91;100.00
13690;BME280;6917;52.194;9.894;2023-05-21T07:58:13;100631.56;;;14.92;100.00
13690;BME280;6917;52.194;9.894;2023-05-21T08:00:42;100632.75;;;15.03;100.00
13690;BME280;6917;52.194;9.894;2023-05-21T08:03:09;100630.63;;;15.09;100.00
13690;BME280;6917;52.194;9.894;2023-05-21T08:05:35;100629.13;;;15.11;100.00
13690;BME280;6917;52.194;9.894;2023-05-21T08:08:01;100628.94;;;15.16;100.00
13690;BME280;6917;52.194;9.894;2023-05-21T08:10:26;100625.06;;;15.30;100.00
13690;BME280;6917;52.194;9.894;2023-05-21T08:12:52;100625.88;;;15.30;100.00
13690;BME280;6917;52.194;9.894;2023-05-21T08:15:17;100619.88;;;15.49;100.00
13690;BME280;6917;52.194;9.894;2023-05-21T08:17:42;100627.81;;;15.51;100.00
13690;BME280;6917;52.194;9.894;2023-05-21T08:20:08;100628.09;;;15.70;100.00
13690;BME280;6917;52.194;9.894;2023-05-21T08:22:34;100619.75;;;15.79;100.00
13690;BME280;6917;52.194;9.894;2023-05-21T08:24:59;100617.81;;;15.91;100.00
13690;BME280;6917;52.194;9.894;2023-05-21T08:27:25;100618.41;;;16.09;100.00
13690;BME280;6917;52.194;9.894;2023-05-21T08:29:50;100628.84;;;16.16;100.00
13690;BME280;6917;52.194;9.894;2023-05-21T08:32:16;100629.19;;;16.39;100.00
13690;BME280;6917;52.194;9.894;2023-05-21T08:34:41;100627.78;;;16.45;100.00
13690;BME280;6917;52.194;9.894;2023-05-21T08:37:07;100628.25;;;16.47;100.00
13690;BME280;6917;52.194;9.894;2023-05-21T08:39:32;100624.69;;;16.58;100.00
13690;BME280;6917;52.194;9.894;2023-05-21T08:42:07;100617.44;;;16.78;100.00
13690;BME280;6917;52.194;9.894;2023-05-21T08:44:36;100618.19;;;16.91;100.00
13690;BME280;6917;52.194;9.894;2023-05-21T08:47:06;100622.16;;;16.65;100.00
13690;BME280;6917;52.194;9.894;2023-05-21T08:49:33;100615.31;;;16.87;100.00
13690;BME280;6917;52.194;9.894;2023-05-21T08:52:00;100626.88;;;17.05;100.00
13690;BME280;6917;52.194;9.894;2023-05-21T08:54:26;100619.13;;;16.95;99.65
13690;BME280;6917;52.194;9.894;2023-05-21T08:56:52;100614.59;;;17.03;99.55
13690;BME280;6917;52.194;9.894;2023-05-21T08:59:20;100615.16;;;17.08;99.31
13690;BME280;6917;52.194;9.894;2023-05-21T09:01:46;100611.13;;;17.06;99.26
13690;BME280;6917;52.194;9.894;2023-05-21T09:04:15;100606.91;;;16.96;99.42
13690;BME280;6917;52.194;9.894;2023-05-21T09:06:41;100615.34;;;17.15;99.96
13690;BME280;6917;52.194;9.894;2023-05-21T09:09:17;100612.03;;;17.38;99.86
13690;BME280;6917;52.194;9.894;2023-05-21T09:11:46;100612.88;;;17.54;99.57
13690;BME280;6917;52.194;9.894;2023-05-21T09:14:12;100614.44;;;17.83;99.60
13690;BME280;6917;52.194;9.894;2023-05-21T09:16:39;100608.00;;;17.79;97.44
13690;BME280;6917;52.194;9.894;2023-05-21T09:19:05;100611.59;;;17.95;97.08
13690;BME280;6917;52.194;9.894;2023-05-21T09:21:31;100610.31;;;17.77;96.18
13690;BME280;6917;52.194;9.894;2023-05-21T09:23:58;100613.28;;;17.84;95.87
13690;BME280;6917;52.194;9.894;2023-05-21T09:26:24;100611.75;;;17.87;95.98
13690;BME280;6917;52.194;9.894;2023-05-21T09:28:51;100609.72;;;17.99;95.19
13690;BME280;6917;52.194;9.894;2023-05-21T09:31:16;100612.28;;;18.08;94.38
13690;BME280;6917;52.194;9.894;2023-05-21T09:33:45;100609.06;;;18.37;94.10
13690;BME280;6917;52.194;9.894;2023-05-21T09:36:12;100612.03;;;18.64;93.48
13690;BME280;6917;52.194;9.894;2023-05-21T09:38:37;100609.06;;;18.92;91.93
13690;BME280;6917;52.194;9.894;2023-05-21T09:41:05;100609.00;;;19.08;91.52
13690;BME280;6917;52.194;9.894;2023-05-21T09:43:31;100608.94;;;19.04;91.03
13690;BME280;6917;52.194;9.894;2023-05-21T09:45:58;100609.22;;;19.18;90.62
13690;BME280;6917;52.194;9.894;2023-05-21T09:48:49;100600.09;;;19.37;88.98
13690;BME280;6917;52.194;9.894;2023-05-21T09:51:16;100602.31;;;19.28;87.72
13690;BME280;6917;52.194;9.894;2023-05-21T09:53:56;100602.25;;;19.24;87.63
13690;BME280;6917;52.194;9.894;2023-05-21T09:56:28;100609.56;;;19.36;87.46
13690;BME280;6917;52.194;9.894;2023-05-21T09:58:58;100590.44;;;19.50;87.83
13690;BME280;6917;52.194;9.894;2023-05-21T10:01:24;100594.94;;;19.55;87.00
13690;BME280;6917;52.194;9.894;2023-05-21T10:03:54;100586.13;;;19.72;86.15
13690;BME280;6917;52.194;9.894;2023-05-21T10:06:23;100581.28;;;19.92;85.79
13690;BME280;6917;52.194;9.894;2023-05-21T10:08:51;100581.28;;;19.92;84.99
13690;BME280;6917;52.194;9.894;2023-05-21T10:11:18;100573.25;;;20.10;83.89
13690;BME280;6917;52.194;9.894;2023-05-21T10:13:47;100586.25;;;20.06;82.66
13690;BME280;6917;52.194;9.894;2023-05-21T10:16:16;100575.13;;;20.02;82.65
13690;BME280;6917;52.194;9.894;2023-05-21T10:18:42;100564.56;;;20.11;82.16
13690;BME280;6917;52.194;9.894;2023-05-21T10:21:10;100579.53;;;20.07;82.70
13690;BME280;6917;52.194;9.894;2023-05-21T10:23:36;100566.16;;;20.39;81.33
13690;BME280;6917;52.194;9.894;2023-05-21T10:26:03;100573.03;;;20.45;80.96
13690;BME280;6917;52.194;9.894;2023-05-21T10:28:30;100571.00;;;20.42;82.09
13690;BME280;6917;52.194;9.894;2023-05-21T10:30:56;100572.56;;;20.16;82.51
13690;BME280;6917;52.194;9.894;2023-05-21T10:33:22;100565.91;;;20.47;82.56
13690;BME280;6917;52.194;9.894;2023-05-21T10:35:50;100566.72;;;20.48;81.03
13690;BME280;6917;52.194;9.894;2023-05-21T10:38:17;100561.25;;;20.29;81.33
13690;BME280;6917;52.194;9.894;2023-05-21T10:40:43;100565.34;;;20.38;82.12
13690;BME280;6917;52.194;9.894;2023-05-21T10:46:04;100565.97;;;20.51;81.46
13690;BME280;6917;52.194;9.894;2023-05-21T10:49:15;100557.41;;;20.63;80.99
13690;BME280;6917;52.194;9.894;2023-05-21T11:00:11;100536.06;;;21.01;77.64
13690;BME280;6917;52.194;9.894;2023-05-21T11:02:37;100534.38;;;20.96;78.17
13690;BME280;6917;52.194;9.894;2023-05-21T11:05:03;100525.69;;;20.98;77.71
13690;BME280;6917;52.194;9.894;2023-05-21T11:07:57;100514.66;;;21.05;77.34
13690;BME280;6917;52.194;9.894;2023-05-21T11:13:04;100520.22;;;21.05;77.00
13690;BME280;6917;52.194;9.894;2023-05-21T11:15:30;100522.22;;;21.42;77.47
13690;BME280;6917;52.194;9.894;2023-05-21T11:17:55;100518.69;;;21.48;76.38
13690;BME280;6917;52.194;9.894;2023-05-21T11:20:21;100509.91;;;21.43;74.96
13690;BME280;6917;52.194;9.894;2023-05-21T11:22:46;100512.94;;;21.75;74.98
13690;BME280;6917;52.194;9.894;2023-05-21T11:25:12;100497.47;;;21.77;74.32
13690;BME280;6917;52.194;9.894;2023-05-21T11:27:40;100499.47;;;21.77;73.92
13690;BME280;6917;52.194;9.894;2023-05-21T11:30:13;100507.72;;;21.66;73.94
13690;BME280;6917;52.194;9.894;2023-05-21T11:38:09;100482.25;;;22.15;72.76
13690;BME280;6917;52.194;9.894;2023-05-21T11:40:35;100496.25;;;22.33;73.96
13690;BME280;6917;52.194;9.894;2023-05-21T11:43:00;100478.38;;;22.38;72.69
13690;BME280;6917;52.194;9.894;2023-05-21T11:45:31;100487.25;;;22.65;72.21
13690;BME280;6917;52.194;9.894;2023-05-21T11:47:57;100482.88;;;22.64;72.02
13690;BME280;6917;52.194;9.894;2023-05-21T11:50:22;100465.66;;;22.33;70.80
13690;BME280;6917;52.194;9.894;2023-05-21T11:52:49;100473.41;;;22.82;71.20
13690;BME280;6917;52.194;9.894;2023-05-21T11:55:14;100473.44;;;22.86;69.72
13690;BME280;6917;52.194;9.894;2023-05-21T11:57:41;100475.44;;;23.00;69.25
13690;BME280;6917;52.194;9.894;2023-05-21T12:00:13;100473.06;;;23.12;69.25
13690;BME280;6917;52.194;9.894;2023-05-21T12:02:59;100469.53;;;23.44;68.72
13690;BME280;6917;52.194;9.894;2023-05-21T12:05:25;100466.31;;;23.56;68.09
13690;BME280;6917;52.194;9.894;2023-05-21T12:07:51;100459.56;;;23.47;68.57
13690;BME280;6917;52.194;9.894;2023-05-21T12:10:21;100454.38;;;23.31;67.32
13690;BME280;6917;52.194;9.894;2023-05-21T12:12:48;100455.56;;;23.26;66.90
13690;BME280;6917;52.194;9.894;2023-05-21T12:15:16;100458.75;;;23.25;67.44
13690;BME280;6917;52.194;9.894;2023-05-21T12:17:42;100463.13;;;23.19;67.81
13690;BME280;6917;52.194;9.894;2023-05-21T12:20:07;100457.19;;;23.66;67.77
13690;BME280;6917;52.194;9.894;2023-05-21T12:22:34;100434.38;;;24.00;64.01
13690;BME280;6917;52.194;9.894;2023-05-21T12:25:04;100438.00;;;23.97;62.93
13690;BME280;6917;52.194;9.894;2023-05-21T12:27:30;100439.94;;;24.11;64.62
13690;BME280;6917;52.194;9.894;2023-05-21T12:29:55;100457.34;;;24.57;65.63
13690;BME280;6917;52.194;9.894;2023-05-21T12:32:21;100436.41;;;23.96;64.26
13690;BME280;6917;52.194;9.894;2023-05-21T12:34:52;100438.34;;;24.20;64.82
13690;BME280;6917;52.194;9.894;2023-05-21T12:37:25;100446.56;;;24.63;65.68
13690;BME280;6917;52.194;9.894;2023-05-21T12:39:56;100428.53;;;24.71;63.79
13690;BME280;6917;52.194;9.894;2023-05-21T12:42:30;100432.56;;;24.67;62.55
13690;BME280;6917;52.194;9.894;2023-05-21T12:44:56;100439.44;;;24.48;62.25
13690;BME280;6917;52.194;9.894;2023-05-21T12:47:26;100430.31;;;24.37;61.69
13690;BME280;6917;52.194;9.894;2023-05-21T12:49:59;100439.13;;;24.31;62.07
13690;BME280;6917;52.194;9.894;2023-05-21T12:52:26;100433.63;;;23.92;62.01
13690;BME280;6917;52.194;9.894;2023-05-21T12:54:53;100440.03;;;23.71;62.40
13690;BME280;6917;52.194;9.894;2023-05-21T12:57:22;100442.38;;;24.05;63.81
13690;BME280;6917;52.194;9.894;2023-05-21T12:59:54;100438.34;;;24.10;63.54
13690;BME280;6917;52.194;9.894;2023-05-21T13:02:32;100447.44;;;24.46;63.90
13690;BME280;6917;52.194;9.894;2023-05-21T13:05:00;100441.09;;;24.27;62.57
13690;BME280;6917;52.194;9.894;2023-05-21T13:07:27;100437.16;;;24.18;63.25
13690;BME280;6917;52.194;9.894;2023-05-21T13:09:53;100429.50;;;24.29;63.12
13690;BME280;6917;52.194;9.894;2023-05-21T13:12:22;100430.72;;;24.24;62.62